sensor_id;sensor_type;location;lat;lon;timestamp;P1;durP1;ratioP1;P2;durP2;ratioP2
6203;SDS011;3135;42.602;23.468;2022-12-11T00:00:40;10.23;;;4.00;;
6203;SDS011;3135;42.602;23.468;2022-12-11T00:03:05;4.93;;;2.90;;
6203;SDS011;3135;42.602;23.468;2022-12-11T00:05:32;6.07;;;2.90;;
6203;SDS011;3135;42.602;23.468;2022-12-11T00:07:57;12.05;;;3.92;;
6203;SDS011;3135;42.602;23.468;2022-12-11T00:10:23;10.63;;;3.40;;
6203;SDS011;3135;42.602;23.468;2022-12-11T00:12:48;5.63;;;2.80;;
6203;SDS011;3135;42.602;23.468;2022-12-11T00:15:14;5.87;;;3.10;;
6203;SDS011;3135;42.602;23.468;2022-12-11T00:17:40;20.23;;;7.33;;
6203;SDS011;3135;42.602;23.468;2022-12-11T00:20:05;7.13;;;3.07;;
6203;SDS011;3135;42.602;23.468;2022-12-11T00:22:32;5.13;;;2.63;;
6203;SDS011;3135;42.602;23.468;2022-12-11T00:24:57;8.30;;;2.23;;
6203;SDS011;3135;42.602;23.468;2022-12-11T00:27:23;3.17;;;2.10;;
6203;SDS011;3135;42.602;23.468;2022-12-11T00:29:48;4.53;;;1.70;;
6203;SDS011;3135;42.602;23.468;2022-12-11T00:32:14;4.13;;;1.80;;
6203;SDS011;3135;42.602;23.468;2022-12-11T00:34:39;3.73;;;1.90;;
6203;SDS011;3135;42.602;23.468;2022-12-11T00:37:04;3.23;;;1.77;;
6203;SDS011;3135;42.602;23.468;2022-12-11T00:39:30;4.03;;;1.80;;
6203;SDS011;3135;42.602;23.468;2022-12-11T00:41:55;4.07;;;2.23;;
6203;SDS011;3135;42.602;23.468;2022-12-11T00:44:22;7.40;;;2.22;;
6203;SDS011;3135;42.602;23.468;2022-12-11T00:46:47;4.03;;;1.90;;
6203;SDS011;3135;42.602;23.468;2022-12-11T00:49:13;6.07;;;2.03;;
6203;SDS011;3135;42.602;23.468;2022-12-11T00:51:38;3.70;;;2.03;;
6203;SDS011;3135;42.602;23.468;2022-12-11T00:54:04;5.87;;;2.40;;
6203;SDS011;3135;42.602;23.468;2022-12-11T00:56:30;5.30;;;2.22;;
6203;SDS011;3135;42.602;23.468;2022-12-11T00:58:55;3.92;;;1.88;;
6203;SDS011;3135;42.602;23.468;2022-12-11T01:01:21;3.60;;;1.90;;
6203;SDS011;3135;42.602;23.468;2022-12-11T01:03:49;4.93;;;1.50;;
6203;SDS011;3135;42.602;23.468;2022-12-11T01:06:16;3.40;;;1.50;;
6203;SDS011;3135;42.602;23.468;2022-12-11T01:08:44;2.40;;;1.40;;
6203;SDS011;3135;42.602;23.468;2022-12-11T01:11:11;4.22;;;1.60;;
6203;SDS011;3135;42.602;23.468;2022-12-11T01:13:38;5.67;;;1.97;;
6203;SDS011;3135;42.602;23.468;2022-12-11T01:16:12;5.90;;;2.50;;
6203;SDS011;3135;42.602;23.468;2022-12-11T01:18:40;11.02;;;2.70;;
6203;SDS011;3135;42.602;23.468;2022-12-11T01:21:10;4.40;;;2.27;;
6203;SDS011;3135;42.602;23.468;2022-12-11T01:23:37;4.95;;;2.00;;
6203;SDS011;3135;42.602;23.468;2022-12-11T01:26:07;18.13;;;5.47;;
6203;SDS011;3135;42.602;23.468;2022-12-11T01:28:34;10.70;;;4.38;;
6203;SDS011;3135;42.602;23.468;2022-12-11T01:31:00;10.70;;;3.97;;
6203;SDS011;3135;42.602;23.468;2022-12-11T01:33:26;8.75;;;3.90;;
6203;SDS011;3135;42.602;23.468;2022-12-11T01:35:51;7.22;;;3.47;;
6203;SDS011;3135;42.602;23.468;2022-12-11T01:38:18;6.45;;;3.58;;
6203;SDS011;3135;42.602;23.468;2022-12-11T01:40:47;9.00;;;4.40;;
6203;SDS011;3135;42.602;23.468;2022-12-11T01:43:13;6.33;;;3.87;;
6203;SDS011;3135;42.602;23.468;2022-12-11T01:45:42;9.37;;;3.50;;
6203;SDS011;3135;42.602;23.468;2022-12-11T01:48:10;7.45;;;3.33;;
6203;SDS011;3135;42.602;23.468;2022-12-11T01:50:40;10.02;;;3.65;;
6203;SDS011;3135;42.602;23.468;2022-12-11T01:53:09;6.25;;;3.47;;
6203;SDS011;3135;42.602;23.468;2022-12-11T01:55:37;8.50;;;4.28;;
6203;SDS011;3135;42.602;23.468;2022-12-11T01:58:04;5.40;;;3.00;;
6203;SDS011;3135;42.602;23.468;2022-12-11T02:00:31;9.50;;;4.38;;
6203;SDS011;3135;42.602;23.468;2022-12-11T02:02:56;6.13;;;3.27;;
6203;SDS011;3135;42.602;23.468;2022-12-11T02:05:22;2.37;;;1.30;;
6203;SDS011;3135;42.602;23.468;2022-12-11T02:07:49;4.57;;;1.50;;
6203;SDS011;3135;42.602;23.468;2022-12-11T02:10:18;3.40;;;1.40;;
6203;SDS011;3135;42.602;23.468;2022-12-11T02:12:51;0.90;;;0.60;;
6203;SDS011;3135;42.602;23.468;2022-12-11T02:18:19;0.82;;;0.30;;
6203;SDS011;3135;42.602;23.468;2022-12-11T02:20:49;0.30;;;0.20;;
6203;SDS011;3135;42.602;23.468;2022-12-11T02:26:46;0.43;;;0.40;;
6203;SDS011;3135;42.602;23.468;2022-12-11T02:29:37;0.20;;;0.20;;
6203;SDS011;3135;42.602;23.468;2022-12-11T02:32:12;1.50;;;0.20;;
6203;SDS011;3135;42.602;23.468;2022-12-11T02:37:22;0.50;;;0.30;;
6203;SDS011;3135;42.602;23.468;2022-12-11T02:39:50;1.35;;;0.35;;
6203;SDS011;3135;42.602;23.468;2022-12-11T02:42:19;1.60;;;0.28;;
6203;SDS011;3135;42.602;23.468;2022-12-11T02:44:47;0.60;;;0.30;;
6203;SDS011;3135;42.602;23.468;2022-12-11T02:47:15;0.73;;;0.50;;
6203;SDS011;3135;42.602;23.468;2022-12-11T02:49:44;2.15;;;0.50;;
6203;SDS011;3135;42.602;23.468;2022-12-11T02:52:13;0.80;;;0.63;;
6203;SDS011;3135;42.602;23.468;2022-12-11T02:54:43;2.80;;;0.70;;
6203;SDS011;3135;42.602;23.468;2022-12-11T02:57:11;0.80;;;0.60;;
6203;SDS011;3135;42.602;23.468;2022-12-11T02:59:41;0.80;;;0.80;;
6203;SDS011;3135;42.602;23.468;2022-12-11T03:02:09;1.15;;;0.90;;
6203;SDS011;3135;42.602;23.468;2022-12-11T03:04:36;3.30;;;0.90;;
6203;SDS011;3135;42.602;23.468;2022-12-11T03:07:06;2.13;;;0.70;;
6203;SDS011;3135;42.602;23.468;2022-12-11T03:09:39;2.50;;;0.80;;
6203;SDS011;3135;42.602;23.468;2022-12-11T03:12:10;4.40;;;1.10;;
6203;SDS011;3135;42.602;23.468;2022-12-11T03:14:39;2.00;;;0.60;;
6203;SDS011;3135;42.602;23.468;2022-12-11T03:19:54;1.80;;;0.80;;
6203;SDS011;3135;42.602;23.468;2022-12-11T03:22:36;0.35;;;0.32;;
6203;SDS011;3135;42.602;23.468;2022-12-11T03:25:08;3.22;;;0.45;;
6203;SDS011;3135;42.602;23.468;2022-12-11T03:30:12;0.30;;;0.30;;
6203;SDS011;3135;42.602;23.468;2022-12-11T03:32:47;0.60;;;0.50;;
6203;SDS011;3135;42.602;23.468;2022-12-11T03:35:39;1.88;;;0.47;;
6203;SDS011;3135;42.602;23.468;2022-12-11T03:38:27;0.95;;;0.40;;
6203;SDS011;3135;42.602;23.468;2022-12-11T03:40:55;1.00;;;0.40;;
6203;SDS011;3135;42.602;23.468;2022-12-11T03:43:25;2.58;;;1.50;;
6203;SDS011;3135;42.602;23.468;2022-12-11T03:45:53;1.15;;;0.70;;
6203;SDS011;3135;42.602;23.468;2022-12-11T03:48:20;1.00;;;0.52;;
6203;SDS011;3135;42.602;23.468;2022-12-11T03:50:49;1.92;;;0.40;;
6203;SDS011;3135;42.602;23.468;2022-12-11T03:53:16;0.40;;;0.40;;
6203;SDS011;3135;42.602;23.468;2022-12-11T03:55:43;0.70;;;0.40;;
6203;SDS011;3135;42.602;23.468;2022-12-11T03:58:10;3.00;;;0.60;;
6203;SDS011;3135;42.602;23.468;2022-12-11T04:00:35;1.30;;;0.50;;
6203;SDS011;3135;42.602;23.468;2022-12-11T04:03:01;1.35;;;0.70;;
6203;SDS011;3135;42.602;23.468;2022-12-11T04:05:37;0.98;;;0.40;;
6203;SDS011;3135;42.602;23.468;2022-12-11T04:08:03;3.92;;;0.40;;
6203;SDS011;3135;42.602;23.468;2022-12-11T04:10:28;2.15;;;0.50;;
6203;SDS011;3135;42.602;23.468;2022-12-11T04:12:54;1.20;;;0.50;;
6203;SDS011;3135;42.602;23.468;2022-12-11T04:15:19;2.13;;;0.40;;
6203;SDS011;3135;42.602;23.468;2022-12-11T04:17:45;1.00;;;0.40;;
6203;SDS011;3135;42.602;23.468;2022-12-11T04:20:28;0.93;;;0.40;;
6203;SDS011;3135;42.602;23.468;2022-12-11T04:23:13;1.15;;;0.60;;
6203;SDS011;3135;42.602;23.468;2022-12-11T04:26:06;0.50;;;0.43;;
6203;SDS011;3135;42.602;23.468;2022-12-11T04:32:00;2.20;;;0.50;;
6203;SDS011;3135;42.602;23.468;2022-12-11T04:34:25;2.40;;;0.40;;
6203;SDS011;3135;42.602;23.468;2022-12-11T04:36:50;0.90;;;0.40;;
6203;SDS011;3135;42.602;23.468;2022-12-11T04:39:16;2.13;;;0.40;;
6203;SDS011;3135;42.602;23.468;2022-12-11T04:41:41;0.40;;;0.40;;
6203;SDS011;3135;42.602;23.468;2022-12-11T04:44:07;0.90;;;0.50;;
6203;SDS011;3135;42.602;23.468;2022-12-11T04:46:33;1.30;;;0.40;;
6203;SDS011;3135;42.602;23.468;2022-12-11T04:48:59;2.40;;;0.40;;
6203;SDS011;3135;42.602;23.468;2022-12-11T04:51:28;0.70;;;0.40;;
6203;SDS011;3135;42.602;23.468;2022-12-11T04:53:53;0.90;;;0.22;;
6203;SDS011;3135;42.602;23.468;2022-12-11T04:56:19;1.15;;;0.20;;
6203;SDS011;3135;42.602;23.468;2022-12-11T04:58:44;1.23;;;0.40;;
6203;SDS011;3135;42.602;23.468;2022-12-11T05:01:19;0.77;;;0.40;;
6203;SDS011;3135;42.602;23.468;2022-12-11T05:03:46;0.68;;;0.40;;
6203;SDS011;3135;42.602;23.468;2022-12-11T05:06:12;0.90;;;0.30;;
6203;SDS011;3135;42.602;23.468;2022-12-11T05:08:39;0.60;;;0.23;;
6203;SDS011;3135;42.602;23.468;2022-12-11T05:11:07;0.55;;;0.38;;
6203;SDS011;3135;42.602;23.468;2022-12-11T05:13:35;0.35;;;0.30;;
6203;SDS011;3135;42.602;23.468;2022-12-11T05:16:04;0.75;;;0.50;;
6203;SDS011;3135;42.602;23.468;2022-12-11T05:18:31;0.80;;;0.40;;
6203;SDS011;3135;42.602;23.468;2022-12-11T05:20:57;0.30;;;0.30;;
6203;SDS011;3135;42.602;23.468;2022-12-11T05:23:27;0.95;;;0.40;;
6203;SDS011;3135;42.602;23.468;2022-12-11T05:25:54;0.70;;;0.40;;
6203;SDS011;3135;42.602;23.468;2022-12-11T05:28:22;0.70;;;0.50;;
6203;SDS011;3135;42.602;23.468;2022-12-11T05:30:53;1.20;;;0.40;;
6203;SDS011;3135;42.602;23.468;2022-12-11T05:33:20;2.60;;;1.03;;
6203;SDS011;3135;42.602;23.468;2022-12-11T05:35:46;1.07;;;0.40;;
6203;SDS011;3135;42.602;23.468;2022-12-11T05:38:12;2.10;;;0.40;;
6203;SDS011;3135;42.602;23.468;2022-12-11T05:40:38;1.77;;;0.90;;
6203;SDS011;3135;42.602;23.468;2022-12-11T05:43:03;1.90;;;0.80;;
6203;SDS011;3135;42.602;23.468;2022-12-11T05:45:28;1.60;;;0.40;;
6203;SDS011;3135;42.602;23.468;2022-12-11T05:47:54;0.80;;;0.30;;
6203;SDS011;3135;42.602;23.468;2022-12-11T05:50:19;2.40;;;0.50;;
6203;SDS011;3135;42.602;23.468;2022-12-11T05:52:45;0.70;;;0.40;;
6203;SDS011;3135;42.602;23.468;2022-12-11T05:55:10;0.80;;;0.60;;
6203;SDS011;3135;42.602;23.468;2022-12-11T05:57:35;2.60;;;0.40;;
6203;SDS011;3135;42.602;23.468;2022-12-11T06:00:01;0.77;;;0.23;;
6203;SDS011;3135;42.602;23.468;2022-12-11T06:02:27;0.50;;;0.30;;
6203;SDS011;3135;42.602;23.468;2022-12-11T06:04:53;1.23;;;0.40;;
6203;SDS011;3135;42.602;23.468;2022-12-11T06:07:18;0.70;;;0.70;;
6203;SDS011;3135;42.602;23.468;2022-12-11T06:09:44;1.10;;;0.30;;
6203;SDS011;3135;42.602;23.468;2022-12-11T06:12:09;0.40;;;0.40;;
6203;SDS011;3135;42.602;23.468;2022-12-11T06:14:35;0.57;;;0.50;;
6203;SDS011;3135;42.602;23.468;2022-12-11T06:17:00;2.03;;;0.40;;
6203;SDS011;3135;42.602;23.468;2022-12-11T06:19:25;1.00;;;0.37;;
6203;SDS011;3135;42.602;23.468;2022-12-11T06:21:51;1.70;;;0.50;;
6203;SDS011;3135;42.602;23.468;2022-12-11T06:24:16;0.50;;;0.40;;
6203;SDS011;3135;42.602;23.468;2022-12-11T06:26:42;2.10;;;0.70;;
6203;SDS011;3135;42.602;23.468;2022-12-11T06:29:07;0.63;;;0.33;;
6203;SDS011;3135;42.602;23.468;2022-12-11T06:31:33;0.40;;;0.20;;
6203;SDS011;3135;42.602;23.468;2022-12-11T06:33:58;1.00;;;0.30;;
6203;SDS011;3135;42.602;23.468;2022-12-11T06:36:24;0.50;;;0.30;;
6203;SDS011;3135;42.602;23.468;2022-12-11T06:38:50;1.30;;;0.25;;
6203;SDS011;3135;42.602;23.468;2022-12-11T06:41:16;0.70;;;0.40;;
6203;SDS011;3135;42.602;23.468;2022-12-11T06:43:41;1.10;;;0.63;;
6203;SDS011;3135;42.602;23.468;2022-12-11T06:46:09;0.70;;;0.30;;
6203;SDS011;3135;42.602;23.468;2022-12-11T06:48:36;0.63;;;0.38;;
6203;SDS011;3135;42.602;23.468;2022-12-11T06:51:06;1.00;;;0.17;;
6203;SDS011;3135;42.602;23.468;2022-12-11T06:53:32;0.25;;;0.20;;
6203;SDS011;3135;42.602;23.468;2022-12-11T06:56:05;0.57;;;0.30;;
6203;SDS011;3135;42.602;23.468;2022-12-11T06:58:33;0.40;;;0.30;;
6203;SDS011;3135;42.602;23.468;2022-12-11T07:01:00;2.97;;;0.35;;
6203;SDS011;3135;42.602;23.468;2022-12-11T07:03:26;0.50;;;0.20;;
6203;SDS011;3135;42.602;23.468;2022-12-11T07:05:52;1.13;;;0.20;;
6203;SDS011;3135;42.602;23.468;2022-12-11T07:08:17;1.10;;;0.30;;
6203;SDS011;3135;42.602;23.468;2022-12-11T07:10:42;0.38;;;0.28;;
6203;SDS011;3135;42.602;23.468;2022-12-11T07:13:08;1.80;;;0.40;;
6203;SDS011;3135;42.602;23.468;2022-12-11T07:15:33;1.70;;;0.50;;
6203;SDS011;3135;42.602;23.468;2022-12-11T07:17:59;1.37;;;0.67;;
6203;SDS011;3135;42.602;23.468;2022-12-11T07:20:24;1.27;;;0.67;;
6203;SDS011;3135;42.602;23.468;2022-12-11T07:22:50;1.00;;;0.40;;
6203;SDS011;3135;42.602;23.468;2022-12-11T07:25:15;1.73;;;0.70;;
6203;SDS011;3135;42.602;23.468;2022-12-11T07:27:41;1.10;;;0.50;;
6203;SDS011;3135;42.602;23.468;2022-12-11T07:30:06;0.57;;;0.40;;
6203;SDS011;3135;42.602;23.468;2022-12-11T07:32:33;2.30;;;0.30;;
6203;SDS011;3135;42.602;23.468;2022-12-11T07:34:58;3.97;;;0.40;;
6203;SDS011;3135;42.602;23.468;2022-12-11T07:37:24;3.47;;;0.70;;
6203;SDS011;3135;42.602;23.468;2022-12-11T07:39:49;0.67;;;0.30;;
6203;SDS011;3135;42.602;23.468;2022-12-11T07:42:15;2.53;;;0.43;;
6203;SDS011;3135;42.602;23.468;2022-12-11T07:44:40;0.50;;;0.40;;
6203;SDS011;3135;42.602;23.468;2022-12-11T07:47:05;14.83;;;5.23;;
6203;SDS011;3135;42.602;23.468;2022-12-11T07:49:31;1.83;;;0.40;;
6203;SDS011;3135;42.602;23.468;2022-12-11T07:51:56;1.27;;;0.50;;
6203;SDS011;3135;42.602;23.468;2022-12-11T07:54:22;1.60;;;0.30;;
6203;SDS011;3135;42.602;23.468;2022-12-11T07:56:47;0.50;;;0.50;;
6203;SDS011;3135;42.602;23.468;2022-12-11T07:59:13;0.30;;;0.30;;
6203;SDS011;3135;42.602;23.468;2022-12-11T08:01:39;1.35;;;0.47;;
6203;SDS011;3135;42.602;23.468;2022-12-11T08:04:05;1.90;;;0.47;;
6203;SDS011;3135;42.602;23.468;2022-12-11T08:06:33;1.73;;;0.40;;
6203;SDS011;3135;42.602;23.468;2022-12-11T08:09:02;1.10;;;0.35;;
6203;SDS011;3135;42.602;23.468;2022-12-11T08:11:30;1.00;;;0.30;;
6203;SDS011;3135;42.602;23.468;2022-12-11T08:13:56;1.73;;;0.30;;
6203;SDS011;3135;42.602;23.468;2022-12-11T08:16:23;0.87;;;0.30;;
6203;SDS011;3135;42.602;23.468;2022-12-11T08:18:49;1.30;;;0.40;;
6203;SDS011;3135;42.602;23.468;2022-12-11T08:21:24;0.80;;;0.30;;
6203;SDS011;3135;42.602;23.468;2022-12-11T08:23:52;1.75;;;0.40;;
6203;SDS011;3135;42.602;23.468;2022-12-11T08:26:19;1.33;;;0.40;;
6203;SDS011;3135;42.602;23.468;2022-12-11T08:28:46;2.10;;;0.30;;
6203;SDS011;3135;42.602;23.468;2022-12-11T08:31:12;1.17;;;0.32;;
6203;SDS011;3135;42.602;23.468;2022-12-11T08:33:39;1.13;;;0.40;;
6203;SDS011;3135;42.602;23.468;2022-12-11T08:36:06;0.70;;;0.20;;
6203;SDS011;3135;42.602;23.468;2022-12-11T08:38:34;3.10;;;0.40;;
6203;SDS011;3135;42.602;23.468;2022-12-11T08:41:13;2.13;;;0.50;;
6203;SDS011;3135;42.602;23.468;2022-12-11T08:43:40;1.10;;;0.88;;
6203;SDS011;3135;42.602;23.468;2022-12-11T08:46:06;1.30;;;0.40;;
6203;SDS011;3135;42.602;23.468;2022-12-11T08:48:33;2.38;;;0.52;;
6203;SDS011;3135;42.602;23.468;2022-12-11T08:51:00;1.65;;;0.30;;
6203;SDS011;3135;42.602;23.468;2022-12-11T08:53:27;0.40;;;0.30;;
6203;SDS011;3135;42.602;23.468;2022-12-11T08:58:28;1.33;;;0.38;;
6203;SDS011;3135;42.602;23.468;2022-12-11T09:00:54;0.90;;;0.30;;
6203;SDS011;3135;42.602;23.468;2022-12-11T09:03:20;2.00;;;0.40;;
6203;SDS011;3135;42.602;23.468;2022-12-11T09:05:45;0.60;;;0.37;;
6203;SDS011;3135;42.602;23.468;2022-12-11T09:08:11;0.30;;;0.30;;
6203;SDS011;3135;42.602;23.468;2022-12-11T09:10:36;1.50;;;0.50;;
6203;SDS011;3135;42.602;23.468;2022-12-11T09:13:01;1.63;;;0.40;;
6203;SDS011;3135;42.602;23.468;2022-12-11T09:15:27;0.83;;;0.50;;
6203;SDS011;3135;42.602;23.468;2022-12-11T09:17:52;0.70;;;0.47;;
6203;SDS011;3135;42.602;23.468;2022-12-11T09:20:18;1.93;;;0.50;;
6203;SDS011;3135;42.602;23.468;2022-12-11T09:22:43;1.43;;;0.40;;
6203;SDS011;3135;42.602;23.468;2022-12-11T09:25:08;1.83;;;0.43;;
6203;SDS011;3135;42.602;23.468;2022-12-11T09:27:34;1.60;;;0.40;;
6203;SDS011;3135;42.602;23.468;2022-12-11T09:29:59;2.10;;;0.60;;
6203;SDS011;3135;42.602;23.468;2022-12-11T09:32:25;1.33;;;0.38;;
6203;SDS011;3135;42.602;23.468;2022-12-11T09:34:50;1.70;;;0.50;;
6203;SDS011;3135;42.602;23.468;2022-12-11T09:37:16;0.80;;;0.50;;
6203;SDS011;3135;42.602;23.468;2022-12-11T09:39:41;2.33;;;0.50;;
6203;SDS011;3135;42.602;23.468;2022-12-11T09:45:04;1.30;;;0.38;;
6203;SDS011;3135;42.602;23.468;2022-12-11T09:47:47;0.43;;;0.40;;
6203;SDS011;3135;42.602;23.468;2022-12-11T09:50:18;1.10;;;0.50;;
6203;SDS011;3135;42.602;23.468;2022-12-11T09:55:23;4.35;;;0.50;;
6203;SDS011;3135;42.602;23.468;2022-12-11T09:57:53;0.90;;;0.40;;
6203;SDS011;3135;42.602;23.468;2022-12-11T10:00:47;0.60;;;0.40;;
6203;SDS011;3135;42.602;23.468;2022-12-11T10:03:22;0.93;;;0.40;;
6203;SDS011;3135;42.602;23.468;2022-12-11T10:06:02;0.57;;;0.50;;
6203;SDS011;3135;42.602;23.468;2022-12-11T10:08:55;1.75;;;0.60;;
6203;SDS011;3135;42.602;23.468;2022-12-11T10:17:21;1.30;;;0.43;;
6203;SDS011;3135;42.602;23.468;2022-12-11T10:19:54;0.68;;;0.43;;
6203;SDS011;3135;42.602;23.468;2022-12-11T10:22:23;0.80;;;0.37;;
6203;SDS011;3135;42.602;23.468;2022-12-11T10:25:00;0.50;;;0.30;;
6203;SDS011;3135;42.602;23.468;2022-12-11T10:27:31;1.00;;;0.40;;
6203;SDS011;3135;42.602;23.468;2022-12-11T10:32:58;1.38;;;0.45;;
6203;SDS011;3135;42.602;23.468;2022-12-11T10:40:39;1.67;;;0.40;;
6203;SDS011;3135;42.602;23.468;2022-12-11T10:43:08;0.70;;;0.40;;
6203;SDS011;3135;42.602;23.468;2022-12-11T10:45:34;1.35;;;0.30;;
6203;SDS011;3135;42.602;23.468;2022-12-11T10:48:05;0.40;;;0.40;;
6203;SDS011;3135;42.602;23.468;2022-12-11T10:50:34;1.20;;;0.50;;
6203;SDS011;3135;42.602;23.468;2022-12-11T10:53:00;1.10;;;0.40;;
6203;SDS011;3135;42.602;23.468;2022-12-11T10:55:27;1.10;;;0.47;;
6203;SDS011;3135;42.602;23.468;2022-12-11T10:58:02;0.85;;;0.50;;
6203;SDS011;3135;42.602;23.468;2022-12-11T11:02:57;1.97;;;0.53;;
6203;SDS011;3135;42.602;23.468;2022-12-11T11:05:34;1.23;;;0.60;;
6203;SDS011;3135;42.602;23.468;2022-12-11T11:08:22;0.50;;;0.50;;
6203;SDS011;3135;42.602;23.468;2022-12-11T11:10:57;0.87;;;0.40;;
6203;SDS011;3135;42.602;23.468;2022-12-11T11:13:26;1.40;;;0.55;;
6203;SDS011;3135;42.602;23.468;2022-12-11T11:18:33;1.33;;;0.40;;
6203;SDS011;3135;42.602;23.468;2022-12-11T11:20:59;0.88;;;0.50;;
6203;SDS011;3135;42.602;23.468;2022-12-11T11:23:26;0.80;;;0.60;;
6203;SDS011;3135;42.602;23.468;2022-12-11T11:25:56;0.50;;;0.50;;
6203;SDS011;3135;42.602;23.468;2022-12-11T11:28:27;0.50;;;0.50;;
6203;SDS011;3135;42.602;23.468;2022-12-11T11:30:59;0.40;;;0.40;;
6203;SDS011;3135;42.602;23.468;2022-12-11T11:33:35;0.85;;;0.70;;
6203;SDS011;3135;42.602;23.468;2022-12-11T11:36:19;1.52;;;0.50;;
6203;SDS011;3135;42.602;23.468;2022-12-11T11:44:41;2.13;;;0.80;;
6203;SDS011;3135;42.602;23.468;2022-12-11T11:47:23;0.68;;;0.50;;
6203;SDS011;3135;42.602;23.468;2022-12-11T11:53:02;0.63;;;0.57;;
6203;SDS011;3135;42.602;23.468;2022-12-11T11:58:32;1.38;;;0.50;;
6203;SDS011;3135;42.602;23.468;2022-12-11T12:01:09;3.60;;;0.50;;
6203;SDS011;3135;42.602;23.468;2022-12-11T12:03:39;0.52;;;0.50;;
6203;SDS011;3135;42.602;23.468;2022-12-11T12:06:49;1.13;;;0.40;;
6203;SDS011;3135;42.602;23.468;2022-12-11T12:12:03;1.80;;;0.40;;
6203;SDS011;3135;42.602;23.468;2022-12-11T12:14:53;1.10;;;0.50;;
6203;SDS011;3135;42.602;23.468;2022-12-11T12:20:15;1.63;;;0.50;;
6203;SDS011;3135;42.602;23.468;2022-12-11T12:28:43;0.70;;;0.55;;
6203;SDS011;3135;42.602;23.468;2022-12-11T12:39:45;3.08;;;1.08;;
6203;SDS011;3135;42.602;23.468;2022-12-11T12:42:31;2.40;;;0.70;;
6203;SDS011;3135;42.602;23.468;2022-12-11T12:47:41;1.23;;;1.13;;
6203;SDS011;3135;42.602;23.468;2022-12-11T12:50:19;0.80;;;0.60;;
6203;SDS011;3135;42.602;23.468;2022-12-11T12:52:46;1.90;;;1.00;;
6203;SDS011;3135;42.602;23.468;2022-12-11T12:58:00;2.77;;;1.80;;
6203;SDS011;3135;42.602;23.468;2022-12-11T13:00:32;2.10;;;1.90;;
6203;SDS011;3135;42.602;23.468;2022-12-11T13:03:19;3.63;;;2.08;;
6203;SDS011;3135;42.602;23.468;2022-12-11T13:06:03;6.57;;;3.80;;
6203;SDS011;3135;42.602;23.468;2022-12-11T13:11:06;3.17;;;2.65;;
6203;SDS011;3135;42.602;23.468;2022-12-11T13:16:06;1.77;;;1.50;;
6203;SDS011;3135;42.602;23.468;2022-12-11T13:18:42;1.90;;;1.70;;
6203;SDS011;3135;42.602;23.468;2022-12-11T13:26:39;1.80;;;1.48;;
6203;SDS011;3135;42.602;23.468;2022-12-11T13:29:05;2.53;;;1.43;;
6203;SDS011;3135;42.602;23.468;2022-12-11T13:31:31;3.33;;;1.57;;
6203;SDS011;3135;42.602;23.468;2022-12-11T13:34:16;1.92;;;1.83;;
6203;SDS011;3135;42.602;23.468;2022-12-11T13:36:48;2.40;;;2.10;;
6203;SDS011;3135;42.602;23.468;2022-12-11T13:39:21;1.83;;;1.73;;
6203;SDS011;3135;42.602;23.468;2022-12-11T13:41:50;2.47;;;1.63;;
6203;SDS011;3135;42.602;23.468;2022-12-11T13:44:28;3.00;;;2.00;;
6203;SDS011;3135;42.602;23.468;2022-12-11T13:46:58;2.30;;;2.10;;
6203;SDS011;3135;42.602;23.468;2022-12-11T13:49:28;2.23;;;1.63;;
6203;SDS011;3135;42.602;23.468;2022-12-11T13:51:59;1.60;;;1.40;;
6203;SDS011;3135;42.602;23.468;2022-12-11T13:54:26;1.80;;;1.27;;
6203;SDS011;3135;42.602;23.468;2022-12-11T13:56:58;1.30;;;1.20;;
6203;SDS011;3135;42.602;23.468;2022-12-11T13:59:33;2.60;;;1.83;;
6203;SDS011;3135;42.602;23.468;2022-12-11T14:05:05;2.17;;;1.60;;
6203;SDS011;3135;42.602;23.468;2022-12-11T14:07:35;1.70;;;1.60;;
6203;SDS011;3135;42.602;23.468;2022-12-11T14:10:13;2.53;;;1.70;;
6203;SDS011;3135;42.602;23.468;2022-12-11T14:12:50;2.58;;;1.70;;
6203;SDS011;3135;42.602;23.468;2022-12-11T14:15:28;1.70;;;1.47;;
6203;SDS011;3135;42.602;23.468;2022-12-11T14:17:55;1.70;;;1.50;;
6203;SDS011;3135;42.602;23.468;2022-12-11T14:22:48;4.07;;;1.23;;
6203;SDS011;3135;42.602;23.468;2022-12-11T14:25:21;1.53;;;1.43;;
6203;SDS011;3135;42.602;23.468;2022-12-11T14:27:52;23.53;;;8.77;;
6203;SDS011;3135;42.602;23.468;2022-12-11T14:30:24;1.02;;;0.80;;
6203;SDS011;3135;42.602;23.468;2022-12-11T14:32:52;0.80;;;0.80;;
6203;SDS011;3135;42.602;23.468;2022-12-11T14:35:26;0.95;;;0.73;;
6203;SDS011;3135;42.602;23.468;2022-12-11T14:38:06;1.10;;;0.70;;
6203;SDS011;3135;42.602;23.468;2022-12-11T14:40:40;3.60;;;1.00;;
6203;SDS011;3135;42.602;23.468;2022-12-11T14:43:19;1.30;;;0.80;;
6203;SDS011;3135;42.602;23.468;2022-12-11T14:45:50;0.88;;;0.80;;
6203;SDS011;3135;42.602;23.468;2022-12-11T14:48:22;0.90;;;0.70;;
6203;SDS011;3135;42.602;23.468;2022-12-11T14:50:53;1.80;;;0.73;;
6203;SDS011;3135;42.602;23.468;2022-12-11T14:53:25;1.50;;;0.50;;
6203;SDS011;3135;42.602;23.468;2022-12-11T14:55:53;0.50;;;0.50;;
6203;SDS011;3135;42.602;23.468;2022-12-11T14:58:25;1.17;;;0.50;;
6203;SDS011;3135;42.602;23.468;2022-12-11T15:00:56;0.80;;;0.73;;
6203;SDS011;3135;42.602;23.468;2022-12-11T15:06:42;0.75;;;0.60;;
6203;SDS011;3135;42.602;23.468;2022-12-11T15:11:49;0.60;;;0.52;;
6203;SDS011;3135;42.602;23.468;2022-12-11T15:14:17;0.50;;;0.50;;
6203;SDS011;3135;42.602;23.468;2022-12-11T15:16:44;0.70;;;0.70;;
6203;SDS011;3135;42.602;23.468;2022-12-11T15:21:59;0.57;;;0.57;;
6203;SDS011;3135;42.602;23.468;2022-12-11T15:24:31;0.80;;;0.50;;
6203;SDS011;3135;42.602;23.468;2022-12-11T15:27:02;0.63;;;0.60;;
6203;SDS011;3135;42.602;23.468;2022-12-11T15:29:33;0.70;;;0.70;;
6203;SDS011;3135;42.602;23.468;2022-12-11T15:34:47;0.60;;;0.60;;
6203;SDS011;3135;42.602;23.468;2022-12-11T15:37:30;0.60;;;0.60;;
6203;SDS011;3135;42.602;23.468;2022-12-11T15:40:00;1.13;;;0.60;;
6203;SDS011;3135;42.602;23.468;2022-12-11T15:42:31;2.40;;;0.60;;
6203;SDS011;3135;42.602;23.468;2022-12-11T15:44:59;2.10;;;0.50;;
6203;SDS011;3135;42.602;23.468;2022-12-11T15:47:27;0.60;;;0.60;;
6203;SDS011;3135;42.602;23.468;2022-12-11T15:49:55;0.57;;;0.57;;
6203;SDS011;3135;42.602;23.468;2022-12-11T15:52:23;0.90;;;0.50;;
6203;SDS011;3135;42.602;23.468;2022-12-11T15:54:49;2.13;;;0.50;;
6203;SDS011;3135;42.602;23.468;2022-12-11T15:57:15;0.65;;;0.50;;
6203;SDS011;3135;42.602;23.468;2022-12-11T15:59:43;0.55;;;0.55;;
6203;SDS011;3135;42.602;23.468;2022-12-11T16:02:12;0.70;;;0.70;;
6203;SDS011;3135;42.602;23.468;2022-12-11T16:04:38;1.50;;;0.60;;
6203;SDS011;3135;42.602;23.468;2022-12-11T16:07:05;0.50;;;0.50;;
6203;SDS011;3135;42.602;23.468;2022-12-11T16:09:36;0.80;;;0.50;;
6203;SDS011;3135;42.602;23.468;2022-12-11T16:12:02;1.10;;;0.50;;
6203;SDS011;3135;42.602;23.468;2022-12-11T16:14:27;2.17;;;1.47;;
6203;SDS011;3135;42.602;23.468;2022-12-11T16:16:52;3.47;;;2.20;;
6203;SDS011;3135;42.602;23.468;2022-12-11T16:19:18;0.67;;;0.60;;
6203;SDS011;3135;42.602;23.468;2022-12-11T16:21:43;3.53;;;2.30;;
6203;SDS011;3135;42.602;23.468;2022-12-11T16:24:09;3.05;;;1.60;;
6203;SDS011;3135;42.602;23.468;2022-12-11T16:26:35;1.33;;;1.03;;
6203;SDS011;3135;42.602;23.468;2022-12-11T16:29:00;12.50;;;6.73;;
6203;SDS011;3135;42.602;23.468;2022-12-11T16:31:26;0.70;;;0.50;;
6203;SDS011;3135;42.602;23.468;2022-12-11T16:33:51;0.50;;;0.50;;
6203;SDS011;3135;42.602;23.468;2022-12-11T16:36:17;1.00;;;0.80;;
6203;SDS011;3135;42.602;23.468;2022-12-11T16:38:44;1.00;;;0.60;;
6203;SDS011;3135;42.602;23.468;2022-12-11T16:41:11;0.95;;;0.57;;
6203;SDS011;3135;42.602;23.468;2022-12-11T16:43:36;0.70;;;0.60;;
6203;SDS011;3135;42.602;23.468;2022-12-11T16:46:02;0.80;;;0.50;;
6203;SDS011;3135;42.602;23.468;2022-12-11T16:48:27;3.10;;;2.90;;
6203;SDS011;3135;42.602;23.468;2022-12-11T16:50:53;0.68;;;0.68;;
6203;SDS011;3135;42.602;23.468;2022-12-11T16:53:19;1.20;;;0.73;;
6203;SDS011;3135;42.602;23.468;2022-12-11T16:55:45;3.53;;;3.20;;
6203;SDS011;3135;42.602;23.468;2022-12-11T16:58:11;2.33;;;1.70;;
6203;SDS011;3135;42.602;23.468;2022-12-11T17:00:42;0.50;;;0.50;;